Startpagina
METAR-TAF:

METAR-TAF

Vliegvelden :

Vliegbasis Chièvres

Chièvres, België

breedte: 50-34N, lengte: 003-50E, hoogte: 60 m

Actueel weer

Dit bericht is 36 minuten geleden gemaakt, om 01:55 UTC
Wind 6 kt uit het oosten
Temperatuur 10°C
Vochtigheid 62%
Druk 1019 hPa
Zicht 10 km of meer

METAR: EBCV 210155Z AUTO 08006KT 9999 NCD 10/03 Q1019 BLU

Tijdstip: 04:31 (02:31 UTC)

Verwachting

Dit bericht is 10 uur en het 38 minuten geleden gemaakt, om 15:53 UTC
Verwachting geldig van 20 om 19 UTC tot 21 om 07 UTC
Wind 7 kt uit het oosten
Zicht 10 km of meer
Weinig wolken op 30000 ft

TAF: EBCV 201553Z 2019/2107 08007KT 9999 FEW300 BY EBWM

Waarnemingen en weersverwachtingen van meer dan 4000 vliegvelden (METAR en TAF).

De beschikbare stations zijn de gele en rode punten op de kaart.

Ga met uw muis naar het station om de naam te zien.

Klik dan om waarnemingen en weersverwachtingen te zien.

kaart wijzigen: klik op de groene knoppen met een zwart kruis om in te zoomen, op de groene knop met een streepje om uit te zoomen of op de groene pijlen voor aangrenzende kaarten.


METAR-TAF: